sensor_id;sensor_type;location;lat;lon;timestamp;temperature;humidity
10010;DHT22;5044;48.652;9.250;2023-07-22T00:01:04;14.50;99.90
10010;DHT22;5044;48.652;9.250;2023-07-22T00:03:50;14.50;99.90
10010;DHT22;5044;48.652;9.250;2023-07-22T00:06:26;14.50;99.90
10010;DHT22;5044;48.652;9.250;2023-07-22T00:08:58;14.30;99.90
10010;DHT22;5044;48.652;9.250;2023-07-22T00:11:30;14.30;99.90
10010;DHT22;5044;48.652;9.250;2023-07-22T00:14:10;14.30;99.90
10010;DHT22;5044;48.652;9.250;2023-07-22T00:16:50;14.40;99.20
10010;DHT22;5044;48.652;9.250;2023-07-22T00:19:29;14.30;99.90
10010;DHT22;5044;48.652;9.250;2023-07-22T00:21:59;14.30;99.90
10010;DHT22;5044;48.652;9.250;2023-07-22T00:24:35;14.20;99.90
10010;DHT22;5044;48.652;9.250;2023-07-22T00:27:13;14.30;99.90
10010;DHT22;5044;48.652;9.250;2023-07-22T00:29:57;14.30;99.90
10010;DHT22;5044;48.652;9.250;2023-07-22T00:32:33;14.10;99.90
10010;DHT22;5044;48.652;9.250;2023-07-22T00:35:16;13.70;99.90
10010;DHT22;5044;48.652;9.250;2023-07-22T00:37:48;13.80;99.90
10010;DHT22;5044;48.652;9.250;2023-07-22T00:40:24;13.80;99.90
10010;DHT22;5044;48.652;9.250;2023-07-22T00:42:54;13.80;99.90
10010;DHT22;5044;48.652;9.250;2023-07-22T00:45:38;13.80;99.90
10010;DHT22;5044;48.652;9.250;2023-07-22T00:48:19;13.90;99.90
10010;DHT22;5044;48.652;9.250;2023-07-22T00:50:56;13.80;99.90
10010;DHT22;5044;48.652;9.250;2023-07-22T00:53:43;14.00;99.90
10010;DHT22;5044;48.652;9.250;2023-07-22T00:56:13;13.90;99.90
10010;DHT22;5044;48.652;9.250;2023-07-22T00:58:50;13.90;99.90
10010;DHT22;5044;48.652;9.250;2023-07-22T01:01:26;13.80;99.90
10010;DHT22;5044;48.652;9.250;2023-07-22T01:03:57;13.80;99.90
10010;DHT22;5044;48.652;9.250;2023-07-22T01:06:35;13.70;99.90
10010;DHT22;5044;48.652;9.250;2023-07-22T01:09:08;13.80;99.90
10010;DHT22;5044;48.652;9.250;2023-07-22T01:11:42;13.70;99.90
10010;DHT22;5044;48.652;9.250;2023-07-22T01:14:12;13.60;99.90
10010;DHT22;5044;48.652;9.250;2023-07-22T01:16:46;13.70;99.90
10010;DHT22;5044;48.652;9.250;2023-07-22T01:19:17;13.70;99.90
10010;DHT22;5044;48.652;9.250;2023-07-22T01:21:50;13.60;99.90
10010;DHT22;5044;48.652;9.250;2023-07-22T01:24:31;13.60;99.90
10010;DHT22;5044;48.652;9.250;2023-07-22T01:27:03;13.60;99.90
10010;DHT22;5044;48.652;9.250;2023-07-22T01:29:43;13.60;99.90
10010;DHT22;5044;48.652;9.250;2023-07-22T01:32:15;13.40;99.90
10010;DHT22;5044;48.652;9.250;2023-07-22T01:34:45;13.50;99.90
10010;DHT22;5044;48.652;9.250;2023-07-22T01:37:20;13.50;99.90
10010;DHT22;5044;48.652;9.250;2023-07-22T01:40:00;13.50;99.90
10010;DHT22;5044;48.652;9.250;2023-07-22T01:42:43;13.50;99.90
10010;DHT22;5044;48.652;9.250;2023-07-22T01:45:14;13.50;99.90
10010;DHT22;5044;48.652;9.250;2023-07-22T01:47:51;13.60;99.80
10010;DHT22;5044;48.652;9.250;2023-07-22T01:50:26;13.60;99.90
10010;DHT22;5044;48.652;9.250;2023-07-22T01:52:59;13.60;99.90
10010;DHT22;5044;48.652;9.250;2023-07-22T01:55:49;13.50;99.90
10010;DHT22;5044;48.652;9.250;2023-07-22T01:58:21;13.60;99.90
10010;DHT22;5044;48.652;9.250;2023-07-22T02:01:03;13.60;99.90
10010;DHT22;5044;48.652;9.250;2023-07-22T02:03:35;13.40;99.90
10010;DHT22;5044;48.652;9.250;2023-07-22T02:06:21;13.50;99.90
10010;DHT22;5044;48.652;9.250;2023-07-22T02:11:57;13.50;99.90
10010;DHT22;5044;48.652;9.250;2023-07-22T02:14:30;13.50;99.90
10010;DHT22;5044;48.652;9.250;2023-07-22T02:17:03;13.40;99.90
10010;DHT22;5044;48.652;9.250;2023-07-22T02:19:41;13.30;99.90
10010;DHT22;5044;48.652;9.250;2023-07-22T02:22:11;13.40;99.90
10010;DHT22;5044;48.652;9.250;2023-07-22T02:24:41;13.40;99.90
10010;DHT22;5044;48.652;9.250;2023-07-22T02:27:21;13.30;99.90
10010;DHT22;5044;48.652;9.250;2023-07-22T02:29:55;13.30;99.90
10010;DHT22;5044;48.652;9.250;2023-07-22T02:32:29;13.40;97.30
10010;DHT22;5044;48.652;9.250;2023-07-22T02:35:10;13.30;99.90
10010;DHT22;5044;48.652;9.250;2023-07-22T02:41:00;13.30;99.90
10010;DHT22;5044;48.652;9.250;2023-07-22T02:43:52;13.40;99.90
10010;DHT22;5044;48.652;9.250;2023-07-22T02:46:25;13.70;99.90
10010;DHT22;5044;48.652;9.250;2023-07-22T02:49:03;13.20;99.90
10010;DHT22;5044;48.652;9.250;2023-07-22T02:51:34;13.20;99.90
10010;DHT22;5044;48.652;9.250;2023-07-22T02:54:09;13.20;99.90
10010;DHT22;5044;48.652;9.250;2023-07-22T02:56:43;13.20;99.90
10010;DHT22;5044;48.652;9.250;2023-07-22T02:59:30;13.20;99.90
10010;DHT22;5044;48.652;9.250;2023-07-22T03:02:05;13.10;99.90
10010;DHT22;5044;48.652;9.250;2023-07-22T03:04:41;13.10;99.90
10010;DHT22;5044;48.652;9.250;2023-07-22T03:07:13;13.10;99.90
10010;DHT22;5044;48.652;9.250;2023-07-22T03:09:50;13.10;99.90
10010;DHT22;5044;48.652;9.250;2023-07-22T03:12:22;13.00;99.90
10010;DHT22;5044;48.652;9.250;2023-07-22T03:14:55;13.10;99.90
10010;DHT22;5044;48.652;9.250;2023-07-22T03:17:33;13.10;99.90
10010;DHT22;5044;48.652;9.250;2023-07-22T03:20:18;13.00;99.90
10010;DHT22;5044;48.652;9.250;2023-07-22T03:23:11;13.00;99.90
10010;DHT22;5044;48.652;9.250;2023-07-22T03:26:20;13.00;99.90
10010;DHT22;5044;48.652;9.250;2023-07-22T03:32:11;12.90;99.90
10010;DHT22;5044;48.652;9.250;2023-07-22T03:34:40;13.00;99.90
10010;DHT22;5044;48.652;9.250;2023-07-22T03:37:10;13.00;99.90
10010;DHT22;5044;48.652;9.250;2023-07-22T03:39:45;12.90;98.20
10010;DHT22;5044;48.652;9.250;2023-07-22T03:42:16;13.00;97.00
10010;DHT22;5044;48.652;9.250;2023-07-22T03:44:55;13.00;99.90
10010;DHT22;5044;48.652;9.250;2023-07-22T03:47:31;13.00;99.90
10010;DHT22;5044;48.652;9.250;2023-07-22T03:50:06;12.90;99.90
10010;DHT22;5044;48.652;9.250;2023-07-22T03:52:45;12.90;99.90
10010;DHT22;5044;48.652;9.250;2023-07-22T03:55:30;12.80;99.90
10010;DHT22;5044;48.652;9.250;2023-07-22T03:58:01;12.80;99.90
10010;DHT22;5044;48.652;9.250;2023-07-22T04:00:34;12.80;99.90
10010;DHT22;5044;48.652;9.250;2023-07-22T04:03:23;12.80;99.90
10010;DHT22;5044;48.652;9.250;2023-07-22T04:05:56;12.60;99.90
10010;DHT22;5044;48.652;9.250;2023-07-22T04:08:25;12.70;99.90
10010;DHT22;5044;48.652;9.250;2023-07-22T04:11:02;12.70;99.90
10010;DHT22;5044;48.652;9.250;2023-07-22T04:13:33;12.80;99.90
10010;DHT22;5044;48.652;9.250;2023-07-22T04:16:05;12.80;99.90
10010;DHT22;5044;48.652;9.250;2023-07-22T04:18:41;12.80;99.90
10010;DHT22;5044;48.652;9.250;2023-07-22T04:21:15;12.80;99.90
10010;DHT22;5044;48.652;9.250;2023-07-22T04:23:44;12.80;99.90
10010;DHT22;5044;48.652;9.250;2023-07-22T04:26:18;12.80;99.90
10010;DHT22;5044;48.652;9.250;2023-07-22T04:28:53;12.60;99.90
10010;DHT22;5044;48.652;9.250;2023-07-22T04:31:26;12.80;99.90
10010;DHT22;5044;48.652;9.250;2023-07-22T04:34:05;12.80;99.90
10010;DHT22;5044;48.652;9.250;2023-07-22T04:36:49;12.70;99.90
10010;DHT22;5044;48.652;9.250;2023-07-22T04:39:25;12.80;98.40
10010;DHT22;5044;48.652;9.250;2023-07-22T04:44:57;12.80;99.90
10010;DHT22;5044;48.652;9.250;2023-07-22T04:47:43;12.80;99.90
10010;DHT22;5044;48.652;9.250;2023-07-22T04:50:29;13.00;98.80
10010;DHT22;5044;48.652;9.250;2023-07-22T04:53:10;12.80;99.90
10010;DHT22;5044;48.652;9.250;2023-07-22T04:55:47;12.90;99.90
10010;DHT22;5044;48.652;9.250;2023-07-22T04:58:23;12.80;99.90
10010;DHT22;5044;48.652;9.250;2023-07-22T05:00:52;13.10;99.90
10010;DHT22;5044;48.652;9.250;2023-07-22T05:03:20;13.10;99.90
10010;DHT22;5044;48.652;9.250;2023-07-22T05:08:56;12.90;95.60
10010;DHT22;5044;48.652;9.250;2023-07-22T05:11:26;12.90;99.90
10010;DHT22;5044;48.652;9.250;2023-07-22T05:13:53;13.30;99.90
10010;DHT22;5044;48.652;9.250;2023-07-22T05:16:23;12.90;99.90
10010;DHT22;5044;48.652;9.250;2023-07-22T05:18:55;12.90;99.90
10010;DHT22;5044;48.652;9.250;2023-07-22T05:21:25;12.90;99.90
10010;DHT22;5044;48.652;9.250;2023-07-22T05:24:00;12.90;95.60
10010;DHT22;5044;48.652;9.250;2023-07-22T05:26:27;13.00;99.90
10010;DHT22;5044;48.652;9.250;2023-07-22T05:29:05;13.00;96.00
10010;DHT22;5044;48.652;9.250;2023-07-22T05:31:37;13.20;96.20
10010;DHT22;5044;48.652;9.250;2023-07-22T05:34:13;13.30;95.80
10010;DHT22;5044;48.652;9.250;2023-07-22T05:36:44;13.20;96.20
10010;DHT22;5044;48.652;9.250;2023-07-22T05:39:15;13.40;99.90
10010;DHT22;5044;48.652;9.250;2023-07-22T05:42:00;13.40;99.90
10010;DHT22;5044;48.652;9.250;2023-07-22T05:44:32;13.80;99.90
10010;DHT22;5044;48.652;9.250;2023-07-22T05:47:06;13.80;99.90
10010;DHT22;5044;48.652;9.250;2023-07-22T05:49:45;14.00;99.90
10010;DHT22;5044;48.652;9.250;2023-07-22T05:52:49;14.00;99.90
10010;DHT22;5044;48.652;9.250;2023-07-22T05:55:28;14.40;98.70
10010;DHT22;5044;48.652;9.250;2023-07-22T05:58:17;14.60;99.90
10010;DHT22;5044;48.652;9.250;2023-07-22T06:00:49;14.80;99.90
10010;DHT22;5044;48.652;9.250;2023-07-22T06:03:21;15.00;99.90
10010;DHT22;5044;48.652;9.250;2023-07-22T06:05:52;15.10;99.90
10010;DHT22;5044;48.652;9.250;2023-07-22T06:08:55;15.50;99.90
10010;DHT22;5044;48.652;9.250;2023-07-22T06:11:23;15.60;99.90
10010;DHT22;5044;48.652;9.250;2023-07-22T06:13:57;15.60;99.90
10010;DHT22;5044;48.652;9.250;2023-07-22T06:16:44;15.80;99.90
10010;DHT22;5044;48.652;9.250;2023-07-22T06:19:17;16.00;99.90
10010;DHT22;5044;48.652;9.250;2023-07-22T06:21:49;16.30;99.90
10010;DHT22;5044;48.652;9.250;2023-07-22T08:28:45;23.00;63.10
10010;DHT22;5044;48.652;9.250;2023-07-22T08:31:12;23.10;66.50
10010;DHT22;5044;48.652;9.250;2023-07-22T08:33:38;23.10;63.60
10010;DHT22;5044;48.652;9.250;2023-07-22T08:36:05;23.30;67.80
10010;DHT22;5044;48.652;9.250;2023-07-22T08:38:32;23.50;70.40
10010;DHT22;5044;48.652;9.250;2023-07-22T08:40:59;23.60;63.30
10010;DHT22;5044;48.652;9.250;2023-07-22T08:43:28;23.70;68.90
10010;DHT22;5044;48.652;9.250;2023-07-22T08:46:00;23.60;66.30
10010;DHT22;5044;48.652;9.250;2023-07-22T08:48:30;23.60;69.10
10010;DHT22;5044;48.652;9.250;2023-07-22T08:51:03;24.00;67.80
10010;DHT22;5044;48.652;9.250;2023-07-22T08:53:30;24.00;61.30
10010;DHT22;5044;48.652;9.250;2023-07-22T08:55:58;24.00;66.00
10010;DHT22;5044;48.652;9.250;2023-07-22T08:58:25;24.10;65.60
10010;DHT22;5044;48.652;9.250;2023-07-22T09:00:53;24.00;58.00
10010;DHT22;5044;48.652;9.250;2023-07-22T09:03:22;24.00;58.50
10010;DHT22;5044;48.652;9.250;2023-07-22T09:05:49;24.20;59.60
10010;DHT22;5044;48.652;9.250;2023-07-22T09:08:16;24.40;62.40
10010;DHT22;5044;48.652;9.250;2023-07-22T09:10:43;24.10;59.40
10010;DHT22;5044;48.652;9.250;2023-07-22T09:13:10;24.00;62.70
10010;DHT22;5044;48.652;9.250;2023-07-22T09:15:37;24.10;63.50
10010;DHT22;5044;48.652;9.250;2023-07-22T09:18:05;23.70;56.40
10010;DHT22;5044;48.652;9.250;2023-07-22T09:20:33;23.70;59.80
10010;DHT22;5044;48.652;9.250;2023-07-22T09:23:01;23.70;60.50
10010;DHT22;5044;48.652;9.250;2023-07-22T09:25:28;23.70;59.30
10010;DHT22;5044;48.652;9.250;2023-07-22T09:27:58;23.60;60.70
10010;DHT22;5044;48.652;9.250;2023-07-22T09:30:27;23.70;63.20
10010;DHT22;5044;48.652;9.250;2023-07-22T09:32:55;23.50;57.60
10010;DHT22;5044;48.652;9.250;2023-07-22T09:35:28;23.50;59.60
10010;DHT22;5044;48.652;9.250;2023-07-22T09:37:58;23.60;61.50
10010;DHT22;5044;48.652;9.250;2023-07-22T09:40:26;23.60;59.80
10010;DHT22;5044;48.652;9.250;2023-07-22T09:42:54;23.40;64.90
10010;DHT22;5044;48.652;9.250;2023-07-22T09:45:22;23.60;59.90
10010;DHT22;5044;48.652;9.250;2023-07-22T09:47:52;23.90;63.70
10010;DHT22;5044;48.652;9.250;2023-07-22T09:50:20;23.70;59.40
10010;DHT22;5044;48.652;9.250;2023-07-22T09:52:50;23.50;61.10
10010;DHT22;5044;48.652;9.250;2023-07-22T09:55:20;23.80;63.80
10010;DHT22;5044;48.652;9.250;2023-07-22T09:57:51;23.90;60.30
10010;DHT22;5044;48.652;9.250;2023-07-22T10:00:19;24.00;59.70
10010;DHT22;5044;48.652;9.250;2023-07-22T10:02:48;23.80;55.60
10010;DHT22;5044;48.652;9.250;2023-07-22T10:05:19;23.80;56.20
10010;DHT22;5044;48.652;9.250;2023-07-22T10:07:48;23.80;58.00
10010;DHT22;5044;48.652;9.250;2023-07-22T10:10:16;23.90;59.20
10010;DHT22;5044;48.652;9.250;2023-07-22T10:12:46;24.00;56.20
10010;DHT22;5044;48.652;9.250;2023-07-22T10:15:14;23.60;53.70
10010;DHT22;5044;48.652;9.250;2023-07-22T10:17:45;23.30;53.70
10010;DHT22;5044;48.652;9.250;2023-07-22T10:20:13;23.70;58.80
10010;DHT22;5044;48.652;9.250;2023-07-22T10:22:43;23.70;54.20
10010;DHT22;5044;48.652;9.250;2023-07-22T10:25:11;23.90;57.60
10010;DHT22;5044;48.652;9.250;2023-07-22T10:27:39;24.40;55.00
10010;DHT22;5044;48.652;9.250;2023-07-22T10:30:09;24.60;56.80
10010;DHT22;5044;48.652;9.250;2023-07-22T10:32:37;24.40;54.90
10010;DHT22;5044;48.652;9.250;2023-07-22T10:35:08;24.70;53.70
10010;DHT22;5044;48.652;9.250;2023-07-22T10:37:37;24.80;52.50
10010;DHT22;5044;48.652;9.250;2023-07-22T10:40:17;24.90;52.90
10010;DHT22;5044;48.652;9.250;2023-07-22T10:42:53;25.20;50.20
10010;DHT22;5044;48.652;9.250;2023-07-22T10:45:25;24.70;49.60
10010;DHT22;5044;48.652;9.250;2023-07-22T10:48:06;24.40;51.10
10010;DHT22;5044;48.652;9.250;2023-07-22T10:50:41;24.60;49.80
10010;DHT22;5044;48.652;9.250;2023-07-22T10:53:10;25.10;50.80
10010;DHT22;5044;48.652;9.250;2023-07-22T10:56:06;25.10;51.80
10010;DHT22;5044;48.652;9.250;2023-07-22T10:58:35;25.10;52.00
10010;DHT22;5044;48.652;9.250;2023-07-22T11:01:31;25.50;53.30
10010;DHT22;5044;48.652;9.250;2023-07-22T11:04:09;25.70;50.80
10010;DHT22;5044;48.652;9.250;2023-07-22T11:06:38;25.80;50.00
10010;DHT22;5044;48.652;9.250;2023-07-22T11:09:06;26.00;51.50
10010;DHT22;5044;48.652;9.250;2023-07-22T11:11:37;26.10;52.70
10010;DHT22;5044;48.652;9.250;2023-07-22T11:14:15;25.70;51.90
10010;DHT22;5044;48.652;9.250;2023-07-22T11:16:45;25.80;51.00
10010;DHT22;5044;48.652;9.250;2023-07-22T11:19:13;25.90;49.10
10010;DHT22;5044;48.652;9.250;2023-07-22T11:21:40;25.90;49.00
10010;DHT22;5044;48.652;9.250;2023-07-22T11:24:10;26.10;48.60
10010;DHT22;5044;48.652;9.250;2023-07-22T11:26:40;26.30;50.40
10010;DHT22;5044;48.652;9.250;2023-07-22T11:29:10;26.00;48.70
10010;DHT22;5044;48.652;9.250;2023-07-22T11:31:39;25.60;47.90
10010;DHT22;5044;48.652;9.250;2023-07-22T11:34:09;25.80;52.00
10010;DHT22;5044;48.652;9.250;2023-07-22T11:36:40;25.50;49.60
10010;DHT22;5044;48.652;9.250;2023-07-22T11:39:08;25.60;50.70
10010;DHT22;5044;48.652;9.250;2023-07-22T11:41:36;25.40;49.00
10010;DHT22;5044;48.652;9.250;2023-07-22T11:44:04;25.50;48.60
10010;DHT22;5044;48.652;9.250;2023-07-22T11:46:34;25.70;49.00
10010;DHT22;5044;48.652;9.250;2023-07-22T11:49:02;25.40;47.90
10010;DHT22;5044;48.652;9.250;2023-07-22T11:51:31;25.70;50.50
10010;DHT22;5044;48.652;9.250;2023-07-22T11:53:59;26.30;51.80
10010;DHT22;5044;48.652;9.250;2023-07-22T11:56:28;26.70;51.20
10010;DHT22;5044;48.652;9.250;2023-07-22T11:58:55;26.60;48.70
10010;DHT22;5044;48.652;9.250;2023-07-22T12:01:23;26.20;49.60
10010;DHT22;5044;48.652;9.250;2023-07-22T12:03:55;26.00;48.10
10010;DHT22;5044;48.652;9.250;2023-07-22T12:06:25;26.30;48.20
10010;DHT22;5044;48.652;9.250;2023-07-22T12:08:54;26.90;50.60
10010;DHT22;5044;48.652;9.250;2023-07-22T12:11:22;27.10;49.10
10010;DHT22;5044;48.652;9.250;2023-07-22T12:13:54;27.10;47.40
10010;DHT22;5044;48.652;9.250;2023-07-22T12:16:30;27.10;47.30
10010;DHT22;5044;48.652;9.250;2023-07-22T12:18:57;27.50;48.70
10010;DHT22;5044;48.652;9.250;2023-07-22T12:21:24;27.40;49.00
10010;DHT22;5044;48.652;9.250;2023-07-22T12:23:54;26.90;47.70
10010;DHT22;5044;48.652;9.250;2023-07-22T12:26:21;26.80;47.60
10010;DHT22;5044;48.652;9.250;2023-07-22T12:28:48;26.90;48.20
10010;DHT22;5044;48.652;9.250;2023-07-22T12:31:16;27.40;48.70
10010;DHT22;5044;48.652;9.250;2023-07-22T12:33:43;27.10;46.10
10010;DHT22;5044;48.652;9.250;2023-07-22T12:36:11;26.80;46.40
10010;DHT22;5044;48.652;9.250;2023-07-22T12:38:38;26.70;46.70
10010;DHT22;5044;48.652;9.250;2023-07-22T12:41:06;27.20;47.70
10010;DHT22;5044;48.652;9.250;2023-07-22T12:43:33;27.40;48.20
10010;DHT22;5044;48.652;9.250;2023-07-22T12:46:00;27.10;47.40
10010;DHT22;5044;48.652;9.250;2023-07-22T12:48:27;27.50;47.50
10010;DHT22;5044;48.652;9.250;2023-07-22T12:50:55;27.70;47.30
10010;DHT22;5044;48.652;9.250;2023-07-22T12:53:22;28.00;46.60
10010;DHT22;5044;48.652;9.250;2023-07-22T12:55:49;27.90;45.70
10010;DHT22;5044;48.652;9.250;2023-07-22T12:58:17;27.80;46.10
10010;DHT22;5044;48.652;9.250;2023-07-22T13:00:44;28.00;45.30
10010;DHT22;5044;48.652;9.250;2023-07-22T13:03:11;28.00;45.00
10010;DHT22;5044;48.652;9.250;2023-07-22T13:05:38;28.20;45.40
10010;DHT22;5044;48.652;9.250;2023-07-22T13:08:05;28.30;45.20
10010;DHT22;5044;48.652;9.250;2023-07-22T13:10:32;28.30;45.00
10010;DHT22;5044;48.652;9.250;2023-07-22T13:13:03;28.10;44.00
10010;DHT22;5044;48.652;9.250;2023-07-22T13:15:31;28.40;43.80
10010;DHT22;5044;48.652;9.250;2023-07-22T13:17:58;28.30;42.80
10010;DHT22;5044;48.652;9.250;2023-07-22T13:20:25;28.10;42.90
10010;DHT22;5044;48.652;9.250;2023-07-22T13:22:52;28.40;44.20
10010;DHT22;5044;48.652;9.250;2023-07-22T13:25:19;28.50;43.90
10010;DHT22;5044;48.652;9.250;2023-07-22T13:27:46;27.50;42.00
10010;DHT22;5044;48.652;9.250;2023-07-22T13:30:13;26.90;42.50
10010;DHT22;5044;48.652;9.250;2023-07-22T13:32:42;27.30;43.10
10010;DHT22;5044;48.652;9.250;2023-07-22T13:35:09;27.80;44.10
10010;DHT22;5044;48.652;9.250;2023-07-22T13:37:36;27.60;42.10
10010;DHT22;5044;48.652;9.250;2023-07-22T13:40:04;27.80;42.80
10010;DHT22;5044;48.652;9.250;2023-07-22T13:42:36;28.10;43.30
10010;DHT22;5044;48.652;9.250;2023-07-22T13:45:04;28.40;43.40
10010;DHT22;5044;48.652;9.250;2023-07-22T13:47:31;28.60;43.50
10010;DHT22;5044;48.652;9.250;2023-07-22T13:50:00;28.40;42.30
10010;DHT22;5044;48.652;9.250;2023-07-22T13:52:27;28.80;43.70
10010;DHT22;5044;48.652;9.250;2023-07-22T13:54:54;28.70;42.00
10010;DHT22;5044;48.652;9.250;2023-07-22T13:57:23;28.60;41.90
10010;DHT22;5044;48.652;9.250;2023-07-22T13:59:50;28.90;42.40
10010;DHT22;5044;48.652;9.250;2023-07-22T14:02:18;28.40;40.90
10010;DHT22;5044;48.652;9.250;2023-07-22T14:04:45;28.40;41.30
10010;DHT22;5044;48.652;9.250;2023-07-22T14:07:14;28.20;41.70
10010;DHT22;5044;48.652;9.250;2023-07-22T14:09:41;28.40;42.80
10010;DHT22;5044;48.652;9.250;2023-07-22T14:12:09;28.30;42.20
10010;DHT22;5044;48.652;9.250;2023-07-22T14:14:36;28.60;41.70
10010;DHT22;5044;48.652;9.250;2023-07-22T14:17:03;28.50;41.00
10010;DHT22;5044;48.652;9.250;2023-07-22T14:19:31;28.40;40.40
10010;DHT22;5044;48.652;9.250;2023-07-22T14:21:58;28.10;40.90
10010;DHT22;5044;48.652;9.250;2023-07-22T14:24:26;27.90;40.60
10010;DHT22;5044;48.652;9.250;2023-07-22T14:26:53;27.80;40.60
10010;DHT22;5044;48.652;9.250;2023-07-22T14:29:20;28.00;41.50
10010;DHT22;5044;48.652;9.250;2023-07-22T14:31:48;28.20;40.20
10010;DHT22;5044;48.652;9.250;2023-07-22T14:34:15;28.40;40.90
10010;DHT22;5044;48.652;9.250;2023-07-22T14:36:41;28.50;40.70
10010;DHT22;5044;48.652;9.250;2023-07-22T14:39:09;28.50;40.20
10010;DHT22;5044;48.652;9.250;2023-07-22T14:41:37;28.10;38.70
10010;DHT22;5044;48.652;9.250;2023-07-22T14:44:04;28.20;39.60
10010;DHT22;5044;48.652;9.250;2023-07-22T14:46:31;28.00;39.20
10010;DHT22;5044;48.652;9.250;2023-07-22T14:48:58;28.40;40.70
10010;DHT22;5044;48.652;9.250;2023-07-22T14:51:26;28.70;40.70
10010;DHT22;5044;48.652;9.250;2023-07-22T14:53:53;28.60;40.30
10010;DHT22;5044;48.652;9.250;2023-07-22T14:56:20;28.40;39.80
10010;DHT22;5044;48.652;9.250;2023-07-22T14:58:48;28.10;39.50
10010;DHT22;5044;48.652;9.250;2023-07-22T15:01:16;27.80;40.40
10010;DHT22;5044;48.652;9.250;2023-07-22T15:03:42;27.80;41.00
10010;DHT22;5044;48.652;9.250;2023-07-22T15:06:10;27.70;41.80
10010;DHT22;5044;48.652;9.250;2023-07-22T15:08:37;27.40;41.90
10010;DHT22;5044;48.652;9.250;2023-07-22T15:11:04;26.80;41.80
10010;DHT22;5044;48.652;9.250;2023-07-22T15:13:31;26.70;42.70
10010;DHT22;5044;48.652;9.250;2023-07-22T15:15:59;26.80;43.10
10010;DHT22;5044;48.652;9.250;2023-07-22T15:18:26;26.70;42.70
10010;DHT22;5044;48.652;9.250;2023-07-22T15:20:53;26.40;41.90
10010;DHT22;5044;48.652;9.250;2023-07-22T15:23:20;26.20;42.20
10010;DHT22;5044;48.652;9.250;2023-07-22T15:25:47;26.20;42.80
10010;DHT22;5044;48.652;9.250;2023-07-22T15:28:14;26.20;43.10
10010;DHT22;5044;48.652;9.250;2023-07-22T15:30:41;26.60;44.10
10010;DHT22;5044;48.652;9.250;2023-07-22T15:33:09;27.00;44.70
10010;DHT22;5044;48.652;9.250;2023-07-22T15:35:36;26.90;44.70
10010;DHT22;5044;48.652;9.250;2023-07-22T15:38:03;26.70;44.10
10010;DHT22;5044;48.652;9.250;2023-07-22T15:40:34;26.60;44.60
10010;DHT22;5044;48.652;9.250;2023-07-22T15:43:02;26.80;46.20
10010;DHT22;5044;48.652;9.250;2023-07-22T15:45:29;26.60;45.10
10010;DHT22;5044;48.652;9.250;2023-07-22T15:47:56;26.30;44.40
10010;DHT22;5044;48.652;9.250;2023-07-22T15:50:24;26.10;43.80
10010;DHT22;5044;48.652;9.250;2023-07-22T15:52:51;26.30;45.50
10010;DHT22;5044;48.652;9.250;2023-07-22T15:55:19;26.30;44.70
10010;DHT22;5044;48.652;9.250;2023-07-22T15:57:47;26.40;45.90
10010;DHT22;5044;48.652;9.250;2023-07-22T16:00:14;26.60;46.70
10010;DHT22;5044;48.652;9.250;2023-07-22T16:02:41;26.30;45.00
10010;DHT22;5044;48.652;9.250;2023-07-22T16:05:08;26.20;44.80
10010;DHT22;5044;48.652;9.250;2023-07-22T16:07:41;26.10;44.90
10010;DHT22;5044;48.652;9.250;2023-07-22T16:10:09;26.00;44.50
10010;DHT22;5044;48.652;9.250;2023-07-22T16:12:36;26.10;45.60
10010;DHT22;5044;48.652;9.250;2023-07-22T16:15:04;26.30;46.90
10010;DHT22;5044;48.652;9.250;2023-07-22T16:17:32;26.40;48.00
10010;DHT22;5044;48.652;9.250;2023-07-22T16:19:59;26.30;47.20
10010;DHT22;5044;48.652;9.250;2023-07-22T16:22:26;26.00;45.80
10010;DHT22;5044;48.652;9.250;2023-07-22T16:24:54;26.20;47.80
10010;DHT22;5044;48.652;9.250;2023-07-22T16:27:21;26.20;46.80
10010;DHT22;5044;48.652;9.250;2023-07-22T16:29:48;26.30;48.40
10010;DHT22;5044;48.652;9.250;2023-07-22T16:32:15;26.40;48.40
10010;DHT22;5044;48.652;9.250;2023-07-22T16:34:42;26.30;47.60
10010;DHT22;5044;48.652;9.250;2023-07-22T16:37:09;26.20;46.10
10010;DHT22;5044;48.652;9.250;2023-07-22T16:39:36;26.10;46.80
10010;DHT22;5044;48.652;9.250;2023-07-22T16:42:06;26.10;46.90
10010;DHT22;5044;48.652;9.250;2023-07-22T16:44:34;25.60;45.30
10010;DHT22;5044;48.652;9.250;2023-07-22T16:47:01;25.40;45.50
10010;DHT22;5044;48.652;9.250;2023-07-22T16:49:28;25.50;46.20
10010;DHT22;5044;48.652;9.250;2023-07-22T16:51:54;25.70;46.80
10010;DHT22;5044;48.652;9.250;2023-07-22T16:54:22;25.50;45.70
10010;DHT22;5044;48.652;9.250;2023-07-22T16:56:48;25.70;46.60
10010;DHT22;5044;48.652;9.250;2023-07-22T16:59:17;25.70;45.80
10010;DHT22;5044;48.652;9.250;2023-07-22T17:01:44;25.70;46.30
10010;DHT22;5044;48.652;9.250;2023-07-22T17:04:11;25.60;45.30
10010;DHT22;5044;48.652;9.250;2023-07-22T17:06:38;25.70;45.70
10010;DHT22;5044;48.652;9.250;2023-07-22T17:09:05;25.60;45.20
10010;DHT22;5044;48.652;9.250;2023-07-22T17:11:32;25.60;45.70
10010;DHT22;5044;48.652;9.250;2023-07-22T17:13:59;25.70;46.10
10010;DHT22;5044;48.652;9.250;2023-07-22T17:16:27;25.60;45.50
10010;DHT22;5044;48.652;9.250;2023-07-22T17:18:56;25.40;44.40
10010;DHT22;5044;48.652;9.250;2023-07-22T17:21:23;25.30;45.00
10010;DHT22;5044;48.652;9.250;2023-07-22T17:23:50;25.00;45.00
10010;DHT22;5044;48.652;9.250;2023-07-22T17:26:17;25.10;45.40
10010;DHT22;5044;48.652;9.250;2023-07-22T17:28:44;25.20;46.30
10010;DHT22;5044;48.652;9.250;2023-07-22T17:31:11;25.20;45.90
10010;DHT22;5044;48.652;9.250;2023-07-22T17:33:40;25.00;45.40
10010;DHT22;5044;48.652;9.250;2023-07-22T17:36:07;25.00;45.50
10010;DHT22;5044;48.652;9.250;2023-07-22T17:38:34;25.10;45.90
10010;DHT22;5044;48.652;9.250;2023-07-22T17:41:00;25.00;45.40
10010;DHT22;5044;48.652;9.250;2023-07-22T17:43:27;24.80;45.20
10010;DHT22;5044;48.652;9.250;2023-07-22T17:45:54;24.80;45.90
10010;DHT22;5044;48.652;9.250;2023-07-22T17:48:21;24.70;45.90
10010;DHT22;5044;48.652;9.250;2023-07-22T17:50:50;24.60;45.90
10010;DHT22;5044;48.652;9.250;2023-07-22T17:53:17;24.60;46.30
10010;DHT22;5044;48.652;9.250;2023-07-22T17:55:44;24.60;46.00
10010;DHT22;5044;48.652;9.250;2023-07-22T17:58:10;24.60;47.20
10010;DHT22;5044;48.652;9.250;2023-07-22T18:00:37;24.70;48.40
10010;DHT22;5044;48.652;9.250;2023-07-22T18:03:04;24.60;47.80
10010;DHT22;5044;48.652;9.250;2023-07-22T18:05:34;24.40;47.10
10010;DHT22;5044;48.652;9.250;2023-07-22T18:08:04;24.30;46.90
10010;DHT22;5044;48.652;9.250;2023-07-22T18:10:31;24.30;48.00
10010;DHT22;5044;48.652;9.250;2023-07-22T18:12:58;24.30;48.00
10010;DHT22;5044;48.652;9.250;2023-07-22T18:15:25;24.20;47.80
10010;DHT22;5044;48.652;9.250;2023-07-22T18:17:52;24.30;49.50
10010;DHT22;5044;48.652;9.250;2023-07-22T18:20:19;24.20;48.60
10010;DHT22;5044;48.652;9.250;2023-07-22T18:22:46;24.00;48.60
10010;DHT22;5044;48.652;9.250;2023-07-22T18:25:14;24.00;48.30
10010;DHT22;5044;48.652;9.250;2023-07-22T18:27:41;24.00;50.00
10010;DHT22;5044;48.652;9.250;2023-07-22T18:30:08;24.00;50.10